Time;durP1;ratioP1;P1;durP2;ratioP2;P2;SDS_P1;SDS_P2;PMS_P1;PMS_P2;Temp;Humidity;BMP_temperature;BMP_pressure;BME280_temperature;BME280_humidity;BME280_pressure;Samples;Min_cycle;Max_cycle;Signal;HPM_P1;HPM_P2
2021/01/28 00:00:26;;;;;;;17.67;11.55;;;;;;;3.10;80.52;98630.75;5092492;28;20382;-63
2021/01/28 00:02:53;;;;;;;17.45;11.93;;;;;;;3.06;80.60;98639.88;5092248;28;20071;-63
2021/01/28 00:05:22;;;;;;;18.20;12.75;;;;;;;3.08;80.78;98639.72;5091917;28;20044;-64
2021/01/28 00:07:48;;;;;;;17.52;12.05;;;;;;;3.11;80.79;98634.19;5092074;28;20044;-63
2021/01/28 00:10:16;;;;;;;20.15;13.27;;;;;;;3.12;80.86;98636.63;5092032;28;20081;-63
2021/01/28 00:12:43;;;;;;;21.35;12.50;;;;;;;3.14;80.92;98621.66;5092027;28;20135;-64
2021/01/28 00:15:18;;;;;;;21.83;12.82;;;;;;;3.16;80.73;98621.50;5091803;28;20382;-64
2021/01/28 00:17:45;;;;;;;20.95;13.25;;;;;;;3.10;80.63;98617.72;5090766;28;20052;-63
2021/01/28 00:20:15;;;;;;;18.80;12.05;;;;;;;3.07;80.93;98606.72;5092053;28;20075;-64
2021/01/28 00:22:42;;;;;;;19.27;12.65;;;;;;;3.05;81.12;98609.47;5097085;28;20032;-63
2021/01/28 00:25:12;;;;;;;19.42;12.43;;;;;;;3.07;81.19;98593.66;5110499;28;20173;-64
2021/01/28 00:27:40;;;;;;;20.52;12.93;;;;;;;3.13;81.18;98595.66;5109961;28;20048;-63
2021/01/28 00:30:09;;;;;;;19.23;13.02;;;;;;;3.17;81.16;98591.78;5094471;28;20067;-64
2021/01/28 00:32:37;;;;;;;17.92;13.18;;;;;;;3.15;80.82;98591.94;5093709;28;20047;-63
2021/01/28 00:35:08;;;;;;;18.75;12.65;;;;;;;3.18;80.86;98585.59;5092270;28;20072;-64
2021/01/28 00:37:35;;;;;;;17.10;11.95;;;;;;;3.23;80.97;98585.97;5092102;28;20134;-63
2021/01/28 00:40:04;;;;;;;17.17;11.88;;;;;;;3.30;81.14;98571.31;5092125;28;20044;-65
2021/01/28 00:42:30;;;;;;;18.00;12.35;;;;;;;3.35;81.08;98576.09;5091882;28;20059;-63
2021/01/28 00:44:57;;;;;;;17.92;11.68;;;;;;;3.33;80.95;98568.41;5091729;28;20083;-64
2021/01/28 00:47:24;;;;;;;19.23;12.82;;;;;;;3.31;80.74;98570.38;5091777;28;20113;-64
2021/01/28 00:49:52;;;;;;;19.13;13.50;;;;;;;3.34;80.73;98579.66;5095857;28;20078;-63
2021/01/28 00:52:19;;;;;;;18.10;12.35;;;;;;;3.37;80.68;98574.16;5095670;28;20498;-63
2021/01/28 00:54:45;;;;;;;15.93;12.02;;;;;;;3.39;80.60;98567.81;5094104;28;20079;-63
2021/01/28 00:57:17;;;;;;;17.45;13.18;;;;;;;3.40;80.57;98574.66;5094447;28;20048;-63
2021/01/28 00:59:44;;;;;;;17.05;13.20;;;;;;;3.44;80.49;98581.22;5094353;28;20044;-64
2021/01/28 01:02:11;;;;;;;18.98;12.80;;;;;;;3.49;80.59;98578.16;5094258;28;20070;-63
2021/01/28 01:04:38;;;;;;;17.02;12.55;;;;;;;3.48;80.44;98569.50;5095299;28;20071;-64
2021/01/28 01:07:06;;;;;;;17.17;11.30;;;;;;;3.55;80.42;98568.88;5095357;28;20569;-64
2021/01/28 01:09:33;;;;;;;16.80;12.10;;;;;;;3.50;80.26;98571.94;5094033;28;20127;-64
2021/01/28 01:12:00;;;;;;;16.30;11.50;;;;;;;3.52;80.26;98570.00;5094055;28;20044;-64
2021/01/28 01:14:28;;;;;;;16.08;12.18;;;;;;;3.55;80.32;98566.25;5093655;28;20044;-64
2021/01/28 01:16:55;;;;;;;15.18;11.45;;;;;;;3.57;80.15;98564.31;5093995;28;20048;-65
2021/01/28 01:19:26;;;;;;;18.02;12.05;;;;;;;3.59;80.26;98562.34;5094030;28;20080;-64
2021/01/28 01:22:07;;;;;;;17.02;12.27;;;;;;;3.62;80.11;98551.59;5093892;28;20044;-64
2021/01/28 01:24:35;;;;;;;16.02;11.50;;;;;;;3.55;79.93;98542.72;5093682;28;20052;-63
2021/01/28 01:27:02;;;;;;;16.50;12.05;;;;;;;3.59;79.83;98534.47;5095020;28;20129;-64
2021/01/28 01:29:30;;;;;;;19.23;14.13;;;;;;;3.58;79.88;98524.13;5093850;28;20040;-63
2021/01/28 01:32:17;;;;;;;17.85;12.63;;;;;;;3.58;80.07;98524.13;5095106;28;20051;-63
2021/01/28 01:35:04;;;;;;;16.52;11.90;;;;;;;3.64;79.93;98521.72;5095149;28;20047;-63
2021/01/28 01:37:33;;;;;;;15.63;12.00;;;;;;;3.62;79.59;98522.84;5093656;28;20048;-64
2021/01/28 01:40:01;;;;;;;16.30;11.75;;;;;;;3.60;79.66;98516.97;5094309;28;20127;-63
2021/01/28 01:42:34;;;;;;;12.70;10.00;;;;;;;3.60;79.80;98516.97;5093936;28;20574;-63
2021/01/28 01:45:01;;;;;;;13.63;10.45;;;;;;;3.59;79.57;98516.16;5095078;28;20383;-64
2021/01/28 01:47:42;;;;;;;13.93;10.80;;;;;;;3.61;79.76;98508.16;5096591;28;20074;-64
2021/01/28 01:50:25;;;;;;;12.85;10.18;;;;;;;3.65;79.84;98504.25;5097105;28;20067;-64
2021/01/28 01:52:53;;;;;;;14.32;10.75;;;;;;;3.62;79.79;98504.56;5093893;28;20051;-64
2021/01/28 01:55:19;;;;;;;12.02;9.50;;;;;;;3.57;79.70;98509.44;5094304;28;20048;-63
2021/01/28 01:58:07;;;;;;;13.85;10.65;;;;;;;3.53;79.87;98497.66;5093010;28;20048;-63
2021/01/28 02:00:52;;;;;;;11.98;9.15;;;;;;;3.54;80.00;98497.47;5092966;28;20391;-64
2021/01/28 02:03:22;;;;;;;12.88;10.13;;;;;;;3.59;80.01;98489.19;5093247;28;20040;-64
2021/01/28 02:06:16;;;;;;;13.70;9.57;;;;;;;3.57;79.84;98476.28;5094693;28;20059;-63
2021/01/28 02:09:22;;;;;;;11.13;8.75;;;;;;;3.48;79.91;98472.81;5071783;28;20151;-63
2021/01/28 02:11:59;;;;;;;12.07;9.25;;;;;;;3.49;79.95;98465.78;5055045;28;20098;-63
2021/01/28 02:14:46;;;;;;;11.38;8.50;;;;;;;3.51;80.22;98463.00;5086789;28;20063;-63
2021/01/28 02:17:23;;;;;;;10.60;8.93;;;;;;;3.63;80.35;98453.91;5092830;28;20517;-64
2021/01/28 02:20:32;;;;;;;10.55;8.20;;;;;;;3.67;80.04;98443.00;5094332;28;20055;-64
2021/01/28 02:23:21;;;;;;;10.60;8.15;;;;;;;3.67;80.20;98439.53;5092806;28;20051;-63
2021/01/28 02:25:52;;;;;;;10.63;8.27;;;;;;;3.72;80.23;98440.72;5092555;28;20457;-63
2021/01/28 02:28:20;;;;;;;10.95;8.73;;;;;;;3.75;80.17;98430.91;5094002;28;20070;-63
2021/01/28 02:30:52;;;;;;;9.80;7.60;;;;;;;3.84;80.05;98422.97;5092684;28;20418;-64
2021/01/28 02:33:38;;;;;;;10.07;8.05;;;;;;;3.90;79.86;98414.47;5094015;28;20036;-64
2021/01/28 02:36:30;;;;;;;9.10;7.40;;;;;;;3.89;79.53;98405.00;5090304;28;20055;-63
2021/01/28 02:39:08;;;;;;;10.75;7.57;;;;;;;3.89;79.52;98407.59;5092776;28;20318;-64
2021/01/28 02:41:41;;;;;;;10.55;8.13;;;;;;;3.94;79.43;98404.50;5092468;28;20138;-63
2021/01/28 02:44:21;;;;;;;9.32;7.53;;;;;;;3.97;79.51;98401.56;5092213;28;20573;-64
2021/01/28 02:47:21;;;;;;;7.60;6.45;;;;;;;3.96;79.34;98403.38;5080904;28;20055;-61
2021/01/28 02:50:17;;;;;;;9.68;7.05;;;;;;;4.02;79.20;98401.91;5093470;28;20113;-63
2021/01/28 02:52:44;;;;;;;7.90;6.68;;;;;;;4.02;78.85;98401.09;5092223;28;20051;-63
2021/01/28 02:55:16;;;;;;;8.05;6.13;;;;;;;3.98;78.98;98406.63;5092020;28;20048;-62
2021/01/28 02:57:43;;;;;;;6.97;6.20;;;;;;;4.00;79.20;98403.88;5091994;28;20044;-63
2021/01/28 03:00:14;;;;;;;6.07;5.20;;;;;;;4.03;79.12;98395.69;5092126;28;20054;-63
2021/01/28 03:02:40;;;;;;;5.88;4.72;;;;;;;4.03;78.95;98394.88;5092020;28;20048;-63
2021/01/28 03:05:09;;;;;;;5.90;4.78;;;;;;;4.00;78.88;98382.13;5091735;28;20521;-62
2021/01/28 03:07:41;;;;;;;4.65;4.22;;;;;;;4.01;79.14;98383.78;5093169;28;20072;-63
2021/01/28 03:10:09;;;;;;;4.70;4.30;;;;;;;4.03;78.84;98381.81;5091715;28;20040;-64
2021/01/28 03:12:58;;;;;;;4.50;4.10;;;;;;;4.04;78.88;98360.72;5089186;28;20048;-62
2021/01/28 03:15:51;;;;;;;4.53;4.07;;;;;;;4.08;78.78;98359.44;5091508;28;20473;-62
2021/01/28 03:18:19;;;;;;;4.20;3.80;;;;;;;4.13;78.89;98335.41;5093199;28;20405;-63
2021/01/28 03:20:47;;;;;;;4.43;4.00;;;;;;;4.14;78.56;98335.22;5092908;28;20063;-63
2021/01/28 03:23:31;;;;;;;4.57;3.80;;;;;;;4.18;78.38;98333.09;5091627;28;20417;-62
2021/01/28 03:26:18;;;;;;;4.45;4.05;;;;;;;4.20;78.52;98331.97;5092236;28;20113;-63
2021/01/28 03:28:46;;;;;;;4.70;4.15;;;;;;;4.20;78.33;98324.13;5091494;28;20048;-63
2021/01/28 03:31:21;;;;;;;5.45;4.50;;;;;;;4.17;78.38;98313.16;5091543;28;20040;-63
2021/01/28 03:33:48;;;;;;;4.88;4.38;;;;;;;4.21;78.69;98311.84;5091477;28;20090;-63
2021/01/28 03:36:15;;;;;;;4.80;4.22;;;;;;;4.20;78.47;98297.94;5092361;28;20036;-63
2021/01/28 03:38:42;;;;;;;3.95;3.40;;;;;;;4.19;78.57;98285.84;5091364;28;20048;-63
2021/01/28 03:41:10;;;;;;;4.70;3.40;;;;;;;4.25;78.72;98289.59;5091428;28;20051;-62
2021/01/28 03:43:38;;;;;;;3.78;3.40;;;;;;;4.29;78.58;98285.69;5091380;28;20038;-62
2021/01/28 03:46:06;;;;;;;6.90;3.13;;;;;;;4.28;78.48;98275.38;5091082;28;20048;-62
2021/01/28 03:48:43;;;;;;;4.43;3.30;;;;;;;4.30;78.34;98268.19;5091480;28;20089;-62
2021/01/28 03:51:30;;;;;;;3.78;3.42;;;;;;;4.27;78.38;98263.25;5092094;28;20531;-63
2021/01/28 03:54:16;;;;;;;4.88;4.00;;;;;;;4.28;78.58;98257.84;5092513;28;20137;-63
2021/01/28 03:56:55;;;;;;;5.53;3.78;;;;;;;4.29;78.23;98261.31;5091187;28;20048;-63
2021/01/28 03:59:22;;;;;;;3.20;2.90;;;;;;;4.21;78.35;98246.44;5092444;28;20032;-62
2021/01/28 04:02:08;;;;;;;4.55;3.40;;;;;;;4.25;78.77;98247.75;5092607;28;20071;-63
2021/01/28 04:04:54;;;;;;;3.15;2.85;;;;;;;4.18;78.08;98236.31;5092377;28;20085;-63
2021/01/28 04:07:59;;;;;;;4.45;3.55;;;;;;;4.02;78.97;98236.31;5069663;28;20142;-62
2021/01/28 04:10:33;;;;;;;3.88;3.25;;;;;;;4.04;79.28;98229.09;5056327;28;20044;-62
2021/01/28 04:13:01;;;;;;;3.22;2.92;;;;;;;4.08;79.19;98227.78;5090397;28;20044;-61
2021/01/28 04:15:46;;;;;;;2.85;2.63;;;;;;;4.14;79.07;98220.13;5108843;28;20066;-62
2021/01/28 04:18:17;;;;;;;3.53;2.67;;;;;;;4.11;79.06;98227.47;5092334;28;20040;-63
2021/01/28 04:20:49;;;;;;;2.70;2.50;;;;;;;4.11;79.34;98211.78;5091076;28;20052;-62
2021/01/28 04:23:17;;;;;;;2.20;2.00;;;;;;;4.15;79.42;98200.00;5096474;28;20044;-62
2021/01/28 04:26:06;;;;;;;2.45;2.05;;;;;;;4.25;79.23;98184.94;5098501;28;20529;-62
2021/01/28 04:28:37;;;;;;;4.07;2.15;;;;;;;4.31;79.03;98176.41;5097485;28;20052;-62
2021/01/28 04:31:26;;;;;;;2.33;2.10;;;;;;;4.38;79.14;98171.34;5098126;28;20520;-62
2021/01/28 04:33:57;;;;;;;2.50;1.85;;;;;;;4.35;78.81;98169.88;5097476;28;20068;-63
2021/01/28 04:36:27;;;;;;;3.05;1.85;;;;;;;4.33;78.90;98171.84;5097053;28;20051;-63
2021/01/28 04:39:14;;;;;;;2.65;1.38;;;;;;;4.33;79.06;98157.94;5098642;28;20052;-62
2021/01/28 04:41:43;;;;;;;1.80;1.25;;;;;;;4.29;79.03;98159.28;5097287;28;20052;-63
2021/01/28 04:44:11;;;;;;;1.90;1.65;;;;;;;4.28;79.15;98155.00;5097198;28;20044;-62
2021/01/28 04:46:45;;;;;;;2.00;1.80;;;;;;;4.28;79.45;98145.34;5097310;28;20050;-63
2021/01/28 04:49:53;;;;;;;1.58;1.35;;;;;;;4.35;79.42;98133.22;5076040;28;20432;-63
2021/01/28 04:52:29;;;;;;;2.47;1.40;;;;;;;4.38;79.49;98134.69;5095937;28;20391;-63
2021/01/28 04:55:20;;;;;;;1.52;1.20;;;;;;;4.29;79.34;98128.69;5098147;28;20040;-63
2021/01/28 04:57:53;;;;;;;1.40;1.30;;;;;;;4.27;79.36;98114.94;5097205;28;20062;-63
2021/01/28 05:00:29;;;;;;;1.77;1.58;;;;;;;4.30;79.59;98116.41;5097272;28;20131;-64
2021/01/28 05:03:21;;;;;;;1.63;1.40;;;;;;;4.34;79.49;98113.28;5097244;28;20047;-63
2021/01/28 05:06:00;;;;;;;1.63;1.30;;;;;;;4.34;79.26;98100.19;5096936;28;20052;-63
2021/01/28 05:09:03;;;;;;;1.50;1.40;;;;;;;4.31;79.62;98092.69;5075741;28;20074;-64
2021/01/28 05:12:22;;;;;;;1.52;1.40;;;;;;;4.33;79.49;98082.88;5057665;28;20059;-63
2021/01/28 05:15:19;;;;;;;1.27;1.17;;;;;;;4.38;79.55;98069.28;5096497;28;20055;-63
2021/01/28 05:18:27;;;;;;;2.00;1.45;;;;;;;4.44;79.33;98063.34;5095887;28;20545;-63
2021/01/28 05:21:21;;;;;;;3.00;1.40;;;;;;;4.42;79.42;98052.25;5098212;28;20412;-63
2021/01/28 05:24:11;;;;;;;1.33;1.20;;;;;;;4.45;79.34;98044.88;5098430;28;20062;-63
2021/01/28 05:26:42;;;;;;;3.23;1.60;;;;;;;4.55;79.21;98035.97;5096865;28;20051;-63
2021/01/28 05:29:23;;;;;;;1.80;1.67;;;;;;;4.63;79.09;98039.34;5098612;28;20405;-63
2021/01/28 05:32:01;;;;;;;1.30;1.20;;;;;;;4.57;79.02;98034.00;5096887;28;20048;-63
2021/01/28 05:34:32;;;;;;;1.83;1.60;;;;;;;4.58;79.05;98020.75;5095431;28;20603;-63
2021/01/28 05:37:06;;;;;;;2.22;1.50;;;;;;;4.55;78.88;98017.66;5095099;28;20051;-64
2021/01/28 05:40:12;;;;;;;1.65;1.33;;;;;;;4.54;79.25;98001.16;5094948;28;20055;-63
2021/01/28 05:42:45;;;;;;;1.33;1.17;;;;;;;4.48;79.05;98007.88;5093677;28;20067;-64
2021/01/28 05:45:27;;;;;;;1.42;1.23;;;;;;;4.52;79.26;97997.06;5093678;28;20051;-64
2021/01/28 05:48:27;;;;;;;2.15;1.23;;;;;;;4.52;79.12;97989.22;5094995;28;20125;-64
2021/01/28 05:51:14;;;;;;;1.42;1.20;;;;;;;4.54;79.29;97982.81;5093532;28;20048;-63
2021/01/28 05:53:57;;;;;;;1.40;1.27;;;;;;;4.58;79.15;97976.25;5093474;28;20044;-63
2021/01/28 05:56:30;;;;;;;2.90;1.13;;;;;;;4.67;79.26;97977.00;5093146;28;20051;-63
2021/01/28 05:59:06;;;;;;;1.30;1.20;;;;;;;4.64;78.99;97978.16;5093345;28;20454;-63
2021/01/28 06:01:50;;;;;;;1.63;1.20;;;;;;;4.63;79.02;97965.25;5094562;28;20549;-64
2021/01/28 06:04:53;;;;;;;1.52;1.10;;;;;;;4.63;79.19;97960.81;5094187;28;20383;-63
2021/01/28 06:07:54;;;;;;;1.55;1.23;;;;;;;4.66;79.01;97947.38;5093077;28;20074;-63
2021/01/28 06:10:45;;;;;;;1.50;1.25;;;;;;;4.67;78.76;97949.00;5093082;28;20085;-64
2021/01/28 06:13:50;;;;;;;2.35;1.73;;;;;;;4.61;79.32;97941.88;5093037;28;20517;-63
2021/01/28 06:16:57;;;;;;;1.92;1.55;;;;;;;4.70;79.22;97937.38;5089223;28;20149;-64
2021/01/28 06:19:44;;;;;;;1.58;1.48;;;;;;;4.71;79.32;97937.19;5093437;28;20417;-64
2021/01/28 06:22:30;;;;;;;2.03;1.75;;;;;;;4.75;79.40;97944.72;5092969;28;20323;-63
2021/01/28 06:25:54;;;;;;;1.98;1.65;;;;;;;4.74;79.27;97924.75;5093966;28;20051;-63
2021/01/28 06:28:41;;;;;;;1.65;1.40;;;;;;;4.69;79.34;97926.09;5092711;28;20047;-64
2021/01/28 06:31:20;;;;;;;2.13;0.98;;;;;;;4.65;79.43;97921.38;5094004;28;20044;-63
2021/01/28 06:34:34;;;;;;;1.52;1.27;;;;;;;4.60;79.62;97911.44;5093528;28;20525;-65
2021/01/28 06:37:30;;;;;;;1.40;1.30;;;;;;;4.56;79.92;97914.56;5092593;28;20052;-63
2021/01/28 06:40:24;;;;;;;1.30;1.20;;;;;;;4.61;79.83;97912.25;5093644;28;20054;-63
2021/01/28 06:43:15;;;;;;;1.30;1.20;;;;;;;4.66;79.69;97902.06;5094055;28;20137;-64
2021/01/28 06:46:07;;;;;;;2.20;1.33;;;;;;;4.66;79.91;97897.66;5093355;28;20054;-64
2021/01/28 06:48:48;;;;;;;2.88;1.88;;;;;;;4.70;79.81;97900.72;5092442;28;20064;-64
2021/01/28 06:51:28;;;;;;;2.72;2.33;;;;;;;4.65;79.65;97896.03;5092236;28;20130;-63
2021/01/28 06:54:06;;;;;;;2.45;1.65;;;;;;;4.64;79.90;97889.16;5092242;28;20101;-63
2021/01/28 06:57:00;;;;;;;2.00;1.48;;;;;;;4.66;79.89;97886.38;5093663;28;20174;-64
2021/01/28 06:59:54;;;;;;;2.70;1.23;;;;;;;4.64;79.89;97883.09;5093862;28;20405;-63
2021/01/28 07:02:47;;;;;;;1.13;0.90;;;;;;;4.66;79.97;97887.19;5092064;28;20044;-64
2021/01/28 07:05:45;;;;;;;1.33;1.08;;;;;;;4.66;80.21;97881.94;5091793;28;20090;-64
2021/01/28 07:08:28;;;;;;;2.90;1.67;;;;;;;4.63;80.03;97869.19;5091957;28;20048;-64
2021/01/28 07:11:26;;;;;;;1.65;1.55;;;;;;;4.69;80.11;97859.81;5092210;28;20117;-64
2021/01/28 07:14:18;;;;;;;1.65;1.55;;;;;;;4.68;80.21;97843.28;5092963;28;20047;-64
2021/01/28 07:17:08;;;;;;;1.73;1.30;;;;;;;4.71;80.16;97840.31;5091966;28;20047;-64
2021/01/28 07:19:39;;;;;;;2.05;1.15;;;;;;;4.72;80.25;97839.31;5093349;28;20285;-65
2021/01/28 07:22:26;;;;;;;1.90;1.63;;;;;;;4.72;80.35;97828.84;5091959;28;20056;-64
2021/01/28 07:25:24;;;;;;;1.00;0.90;;;;;;;4.69;80.54;97821.38;5091655;28;20047;-64
2021/01/28 07:27:58;;;;;;;1.05;1.00;;;;;;;4.70;80.36;97815.16;5093014;28;20044;-64
2021/01/28 07:30:37;;;;;;;0.90;0.90;;;;;;;4.77;80.40;97807.38;5092967;28;20494;-64
2021/01/28 07:33:05;;;;;;;1.45;1.35;;;;;;;4.81;80.28;97802.59;5092987;28;20123;-63
2021/01/28 07:35:52;;;;;;;1.55;0.93;;;;;;;4.83;80.37;97787.53;5091433;28;20040;-64
2021/01/28 07:38:52;;;;;;;0.97;0.97;;;;;;;4.91;80.18;97784.81;5092619;28;20062;-64
2021/01/28 07:41:53;;;;;;;2.15;1.30;;;;;;;4.91;80.04;97772.53;5092549;28;20157;-63
2021/01/28 07:44:48;;;;;;;0.85;0.85;;;;;;;5.02;80.14;97770.44;5092344;28;20067;-63
2021/01/28 07:47:48;;;;;;;1.65;1.48;;;;;;;5.08;79.95;97760.03;5091245;28;20056;-64
2021/01/28 07:50:28;;;;;;;3.28;1.48;;;;;;;5.09;80.02;97753.81;5091125;28;20110;-63
2021/01/28 07:52:58;;;;;;;2.40;1.58;;;;;;;5.15;80.05;97749.66;5092488;28;20099;-63
2021/01/28 07:55:36;;;;;;;1.70;1.60;;;;;;;5.19;79.84;97740.44;5092190;28;20089;-63
2021/01/28 07:58:04;;;;;;;1.75;1.65;;;;;;;5.17;79.75;97724.88;5094583;28;20043;-64
2021/01/28 08:00:39;;;;;;;2.50;1.92;;;;;;;5.20;79.87;97721.09;5114677;28;20035;-64
2021/01/28 08:03:16;;;;;;;2.20;1.27;;;;;;;5.22;79.88;97713.84;5114970;28;20051;-66
2021/01/28 08:05:51;;;;;;;2.95;1.60;;;;;;;5.22;79.85;97704.19;5092964;28;20039;-64
2021/01/28 08:08:19;;;;;;;;;;;;;;;5.29;79.66;97698.19;5092858;28;20055;-63
2021/01/28 08:10:49;;;;;;;2.17;1.63;;;;;;;5.25;79.63;97697.75;5091178;28;19927;-64
2021/01/28 08:13:24;;;;;;;1.98;1.70;;;;;;;5.21;80.15;97702.56;5092327;28;20044;-64
2021/01/28 08:15:58;;;;;;;1.42;1.30;;;;;;;5.29;80.08;97693.75;5092103;28;20097;-63
2021/01/28 08:18:30;;;;;;;2.67;1.35;;;;;;;5.26;80.06;97686.28;5092192;28;20333;-64
2021/01/28 08:21:07;;;;;;;1.40;1.30;;;;;;;5.29;79.91;97677.22;5090718;28;20075;-64
2021/01/28 08:23:35;;;;;;;1.85;1.60;;;;;;;5.19;80.15;97678.34;5092127;28;20040;-64
2021/01/28 08:26:05;;;;;;;3.47;1.60;;;;;;;5.22;80.27;97666.69;5090633;28;20409;-64
2021/01/28 08:28:36;;;;;;;1.55;1.45;;;;;;;5.27;80.28;97661.72;5092099;28;20047;-65
2021/01/28 08:31:15;;;;;;;2.70;1.45;;;;;;;5.23;80.24;97657.84;5092021;28;20458;-65
2021/01/28 08:33:45;;;;;;;4.15;1.95;;;;;;;5.26;80.57;97661.88;5091882;28;20123;-62
2021/01/28 08:36:23;;;;;;;2.35;1.60;;;;;;;5.24;80.71;97654.22;5091891;28;20063;-63
2021/01/28 08:39:06;;;;;;;1.40;1.13;;;;;;;5.28;80.62;97642.38;5091855;28;20055;-63
2021/01/28 08:41:34;;;;;;;1.30;1.15;;;;;;;5.30;80.71;97634.31;5091862;28;20452;-63
2021/01/28 08:44:05;;;;;;;1.15;1.05;;;;;;;5.27;80.87;97645.19;5091818;28;20169;-63
2021/01/28 08:46:32;;;;;;;1.50;1.40;;;;;;;5.27;80.95;97646.00;5091505;28;20448;-63
2021/01/28 08:49:07;;;;;;;1.30;1.23;;;;;;;5.32;80.92;97648.03;5091755;28;20452;-63
2021/01/28 08:51:39;;;;;;;1.52;1.10;;;;;;;5.29;81.12;97646.59;5090472;28;20040;-64
2021/01/28 08:54:18;;;;;;;1.70;1.60;;;;;;;5.37;81.39;97643.03;5091888;28;20047;-63
2021/01/28 08:56:45;;;;;;;2.35;1.30;;;;;;;5.28;81.54;97658.09;5091766;28;20051;-63
2021/01/28 08:59:15;;;;;;;1.70;1.40;;;;;;;5.31;81.41;97642.00;5091758;28;20055;-63
2021/01/28 09:01:47;;;;;;;2.33;1.42;;;;;;;5.37;81.58;97633.38;5091704;28;20040;-62
2021/01/28 09:04:21;;;;;;;1.73;1.63;;;;;;;5.32;82.18;97655.91;5091514;28;20498;-63
2021/01/28 09:06:49;;;;;;;2.55;1.92;;;;;;;5.38;81.99;97639.41;5091565;28;20132;-63
2021/01/28 09:09:21;;;;;;;3.22;1.48;;;;;;;5.46;82.14;97641.91;5094573;28;20486;-62
2021/01/28 09:11:49;;;;;;;1.95;1.75;;;;;;;5.49;82.21;97641.53;5095824;28;20462;-62
2021/01/28 09:14:32;;;;;;;1.77;1.67;;;;;;;5.60;82.02;97629.75;5093916;28;20567;-63
2021/01/28 09:17:02;;;;;;;1.90;1.80;;;;;;;5.57;82.24;97632.75;5093979;28;20047;-63
2021/01/28 09:19:32;;;;;;;4.22;2.50;;;;;;;5.68;81.89;97619.13;5095660;28;20430;-63
2021/01/28 09:22:03;;;;;;;3.88;2.28;;;;;;;5.72;81.98;97639.53;5095319;28;20046;-64
2021/01/28 09:24:46;;;;;;;5.05;3.30;;;;;;;5.77;81.86;97649.44;5095115;28;20685;-64
2021/01/28 09:27:32;;;;;;;3.20;2.90;;;;;;;5.83;81.87;97637.38;5093760;28;20055;-63
2021/01/28 09:30:18;;;;;;;2.75;2.00;;;;;;;5.84;81.97;97639.81;5092109;28;20502;-64
2021/01/28 09:32:45;;;;;;;2.90;2.00;;;;;;;5.89;81.97;97621.69;5095086;28;20059;-64
2021/01/28 09:35:16;;;;;;;2.65;2.17;;;;;;;5.95;81.91;97631.44;5094970;28;20040;-63
2021/01/28 09:37:47;;;;;;;3.25;2.33;;;;;;;6.07;81.81;97631.72;5093672;28;20056;-64
2021/01/28 09:40:20;;;;;;;4.00;2.67;;;;;;;6.20;81.76;97617.84;5095157;28;20048;-64
2021/01/28 09:42:48;;;;;;;5.25;3.13;;;;;;;6.31;81.68;97611.25;5094883;28;20054;-62
2021/01/28 09:45:22;;;;;;;4.40;2.90;;;;;;;6.35;81.64;97620.38;5094679;28;20044;-63
2021/01/28 09:47:51;;;;;;;56.30;32.33;;;;;;;6.38;81.28;97620.00;5094758;28;20047;-63
2021/01/28 09:50:18;;;;;;;18.38;10.23;;;;;;;6.43;81.47;97614.97;5094639;28;20044;-63
2021/01/28 09:52:48;;;;;;;5.85;3.63;;;;;;;6.51;81.49;97611.38;5094759;28;20048;-64
2021/01/28 09:55:19;;;;;;;3.63;2.55;;;;;;;6.53;81.44;97607.53;5094455;28;20498;-64
2021/01/28 09:57:45;;;;;;;11.13;7.72;;;;;;;6.53;81.50;97612.78;5094837;28;20386;-64
2021/01/28 10:00:15;;;;;;;6.32;4.28;;;;;;;6.59;81.68;97617.25;5094664;28;20044;-65
2021/01/28 10:02:45;;;;;;;5.03;3.05;;;;;;;6.64;81.41;97609.59;5094405;28;20044;-65
2021/01/28 10:05:14;;;;;;;17.88;12.30;;;;;;;6.68;81.34;97607.38;5094191;28;20044;-64
2021/01/28 10:07:41;;;;;;;11.85;7.60;;;;;;;6.70;81.56;97602.75;5094332;28;20056;-64
2021/01/28 10:10:10;;;;;;;8.77;7.70;;;;;;;6.72;81.52;97590.22;5094487;28;20048;-64
2021/01/28 10:12:37;;;;;;;3.75;3.03;;;;;;;6.67;81.78;97582.13;5094310;28;20097;-64
2021/01/28 10:15:06;;;;;;;2.70;2.10;;;;;;;6.72;82.04;97568.41;5094154;28;20032;-64
2021/01/28 10:17:32;;;;;;;1.92;1.70;;;;;;;6.74;82.10;97542.78;5094295;28;20044;-64
2021/01/28 10:19:59;;;;;;;3.45;1.98;;;;;;;6.77;82.15;97521.34;5093371;28;20036;-66
2021/01/28 10:22:27;;;;;;;1.52;1.38;;;;;;;6.83;81.96;97486.41;5094290;28;20040;-65
2021/01/28 10:24:54;;;;;;;1.38;1.20;;;;;;;6.86;82.30;97486.81;5093978;28;20044;-65
2021/01/28 10:27:21;;;;;;;1.23;1.13;;;;;;;7.02;82.21;97474.28;5093987;28;20406;-64
2021/01/28 10:29:48;;;;;;;1.55;1.45;;;;;;;7.00;82.30;97482.38;5094270;28;20069;-65
2021/01/28 10:32:16;;;;;;;1.50;1.40;;;;;;;7.04;82.16;97494.09;5094002;28;20044;-65
2021/01/28 10:34:44;;;;;;;1.40;1.30;;;;;;;7.06;82.43;97501.75;5093789;28;20397;-64
2021/01/28 10:37:11;;;;;;;1.60;1.50;;;;;;;7.07;82.27;97503.41;5092509;28;20070;-65
2021/01/28 10:39:38;;;;;;;0.80;0.80;;;;;;;7.10;82.32;97508.22;5093824;28;20056;-64
2021/01/28 10:42:05;;;;;;;1.00;1.00;;;;;;;7.05;82.90;97516.72;5094072;28;20048;-64
2021/01/28 10:44:33;;;;;;;1.67;1.30;;;;;;;7.13;82.92;97520.97;5093456;28;20040;-64
2021/01/28 10:46:59;;;;;;;2.78;2.35;;;;;;;7.22;82.72;97476.91;5094711;28;20049;-64
2021/01/28 10:49:27;;;;;;;12.43;6.93;;;;;;;7.24;82.60;97498.56;5093019;28;20086;-65
2021/01/28 10:51:53;;;;;;;1.75;1.10;;;;;;;7.26;82.94;97497.31;5093625;28;20051;-65
2021/01/28 10:54:20;;;;;;;1.45;1.00;;;;;;;7.34;83.17;97499.72;5093363;28;20074;-64
2021/01/28 10:56:47;;;;;;;2.40;1.60;;;;;;;7.36;83.54;97491.66;5093376;28;20072;-65
2021/01/28 10:59:14;;;;;;;1.88;1.60;;;;;;;7.48;83.18;97474.25;5093480;28;20047;-65
2021/01/28 11:01:41;;;;;;;0.80;0.80;;;;;;;7.50;83.66;97481.94;5093328;28;20509;-63
2021/01/28 11:04:08;;;;;;;1.38;1.20;;;;;;;7.55;83.67;97482.13;5093289;28;20521;-65
2021/01/28 11:06:35;;;;;;;1.05;1.00;;;;;;;7.58;83.48;97477.25;5093102;28;20513;-64
2021/01/28 11:09:02;;;;;;;2.90;1.00;;;;;;;7.60;83.57;97463.91;5093221;28;20053;-64
2021/01/28 11:11:28;;;;;;;1.75;1.35;;;;;;;7.65;83.53;97470.16;5093108;28;20040;-64
2021/01/28 11:13:55;;;;;;;1.80;1.60;;;;;;;7.68;83.88;97463.69;5093232;28;20043;-62
2021/01/28 11:16:24;;;;;;;2.35;1.95;;;;;;;7.74;83.78;97465.47;5092894;28;20502;-62
2021/01/28 11:18:52;;;;;;;3.47;2.38;;;;;;;7.83;83.68;97458.97;5093150;28;20517;-63
2021/01/28 11:21:20;;;;;;;2.47;1.95;;;;;;;7.87;83.69;97454.09;5093147;28;20608;-64
2021/01/28 11:23:47;;;;;;;2.13;1.33;;;;;;;7.92;83.84;97452.47;5093384;28;20047;-63
2021/01/28 11:26:14;;;;;;;1.50;1.40;;;;;;;8.00;83.86;97455.88;5092653;28;20105;-63
2021/01/28 11:28:41;;;;;;;2.13;1.25;;;;;;;8.09;83.78;97450.19;5092970;28;20043;-63
2021/01/28 11:31:08;;;;;;;1.50;1.38;;;;;;;8.16;83.65;97450.97;5092773;28;20048;-64
2021/01/28 11:33:35;;;;;;;2.50;1.20;;;;;;;8.18;83.79;97438.38;5092862;28;20428;-63
2021/01/28 11:36:03;;;;;;;5.10;1.30;;;;;;;8.23;83.67;97442.22;5092519;28;20040;-64
2021/01/28 11:38:30;;;;;;;2.40;1.80;;;;;;;8.31;83.86;97440.13;5091387;28;20051;-63
2021/01/28 11:40:56;;;;;;;3.08;2.55;;;;;;;8.38;83.44;97433.06;5091477;28;20051;-63
2021/01/28 11:43:23;;;;;;;2.40;2.08;;;;;;;8.39;83.79;97434.66;5107421;28;20062;-61
2021/01/28 11:45:50;;;;;;;1.85;1.60;;;;;;;8.43;83.83;97433.22;5118302;28;20043;-62
2021/01/28 11:48:17;;;;;;;2.83;1.67;;;;;;;8.48;83.69;97427.31;5109549;28;20076;-63
2021/01/28 11:50:44;;;;;;;4.82;1.60;;;;;;;8.55;83.96;97433.34;5093118;28;20044;-63
2021/01/28 11:53:12;;;;;;;2.03;1.80;;;;;;;8.57;83.73;97423.41;5093344;28;20490;-63
2021/01/28 11:55:39;;;;;;;1.48;1.38;;;;;;;8.62;83.79;97422.78;5092266;28;20040;-64
2021/01/28 11:58:05;;;;;;;1.13;1.00;;;;;;;8.65;83.94;97425.78;5092706;28;20051;-64
2021/01/28 12:00:32;;;;;;;1.77;1.35;;;;;;;8.71;84.01;97416.22;5092813;28;20044;-63
2021/01/28 12:02:59;;;;;;;1.17;1.08;;;;;;;8.81;83.81;97418.34;5092945;28;20054;-64
2021/01/28 12:05:29;;;;;;;1.77;1.50;;;;;;;8.91;83.64;97418.69;5092051;28;20514;-64
2021/01/28 12:07:57;;;;;;;1.63;1.52;;;;;;;8.96;83.92;97416.22;5091141;28;20048;-64
2021/01/28 12:10:27;;;;;;;2.05;1.80;;;;;;;9.04;83.81;97415.94;5092478;28;20040;-63
2021/01/28 12:12:54;;;;;;;2.40;1.80;;;;;;;9.06;83.75;97402.53;5092436;28;20036;-64
2021/01/28 12:15:21;;;;;;;3.63;2.17;;;;;;;9.11;84.21;97415.91;5091920;28;20063;-64
2021/01/28 12:17:52;;;;;;;3.28;1.83;;;;;;;9.15;84.17;97402.06;5092078;28;20048;-64
2021/01/28 12:20:23;;;;;;;3.03;1.90;;;;;;;9.12;84.52;97404.31;5092099;28;20440;-64